sensor_id;sensor_type;location;lat;lon;timestamp;pressure;altitude;pressure_sealevel;temperature;humidity
35716;BME280;21840;44.920;8.616;2023-08-06T00:01:29;99347.78;;;26.50;32.46
35716;BME280;21840;44.920;8.616;2023-08-06T00:03:54;99346.19;;;26.49;32.10
35716;BME280;21840;44.920;8.616;2023-08-06T00:06:19;99344.34;;;26.59;31.82
35716;BME280;21840;44.920;8.616;2023-08-06T00:08:46;99346.75;;;26.61;31.85
35716;BME280;21840;44.920;8.616;2023-08-06T00:11:11;99340.84;;;26.59;31.86
35716;BME280;21840;44.920;8.616;2023-08-06T00:13:38;99336.75;;;26.51;32.27
35716;BME280;21840;44.920;8.616;2023-08-06T00:16:13;99327.91;;;26.56;32.48
35716;BME280;21840;44.920;8.616;2023-08-06T00:18:39;99322.00;;;26.64;32.65
35716;BME280;21840;44.920;8.616;2023-08-06T00:21:05;99331.16;;;26.63;32.94
35716;BME280;21840;44.920;8.616;2023-08-06T00:23:30;99340.78;;;26.49;33.87
35716;BME280;21840;44.920;8.616;2023-08-06T00:25:56;99344.06;;;26.61;33.76
35716;BME280;21840;44.920;8.616;2023-08-06T00:28:21;99342.16;;;26.51;34.25
35716;BME280;21840;44.920;8.616;2023-08-06T00:30:52;99344.53;;;26.42;34.87
35716;BME280;21840;44.920;8.616;2023-08-06T00:33:18;99336.03;;;26.66;34.50
35716;BME280;21840;44.920;8.616;2023-08-06T00:35:43;99347.03;;;26.54;35.55
35716;BME280;21840;44.920;8.616;2023-08-06T00:38:09;99338.56;;;26.30;36.79
35716;BME280;21840;44.920;8.616;2023-08-06T00:40:34;99347.72;;;26.29;36.96
35716;BME280;21840;44.920;8.616;2023-08-06T00:42:59;99353.13;;;26.34;37.03
35716;BME280;21840;44.920;8.616;2023-08-06T00:45:25;99349.28;;;26.20;37.98
35716;BME280;21840;44.920;8.616;2023-08-06T00:47:51;99361.19;;;26.34;37.86
35716;BME280;21840;44.920;8.616;2023-08-06T00:50:17;99351.44;;;26.23;38.12
35716;BME280;21840;44.920;8.616;2023-08-06T00:52:43;99355.78;;;26.24;38.29
35716;BME280;21840;44.920;8.616;2023-08-06T00:55:09;99361.91;;;26.14;39.53
35716;BME280;21840;44.920;8.616;2023-08-06T00:57:35;99366.72;;;25.65;38.95
35716;BME280;21840;44.920;8.616;2023-08-06T01:00:00;99357.53;;;25.60;37.77
35716;BME280;21840;44.920;8.616;2023-08-06T01:02:26;99351.72;;;25.36;38.04
35716;BME280;21840;44.920;8.616;2023-08-06T01:04:51;99360.88;;;25.40;38.03
35716;BME280;21840;44.920;8.616;2023-08-06T01:10:59;99369.13;;;25.29;37.62
35716;BME280;21840;44.920;8.616;2023-08-06T01:13:33;99369.38;;;25.00;38.07
35716;BME280;21840;44.920;8.616;2023-08-06T01:16:01;99368.56;;;25.00;38.23
35716;BME280;21840;44.920;8.616;2023-08-06T01:18:27;99366.94;;;25.26;37.67
35716;BME280;21840;44.920;8.616;2023-08-06T01:20:53;99366.06;;;24.93;38.73
35716;BME280;21840;44.920;8.616;2023-08-06T01:23:19;99366.94;;;25.26;37.61
35716;BME280;21840;44.920;8.616;2023-08-06T01:28:52;99367.50;;;25.28;37.57
35716;BME280;21840;44.920;8.616;2023-08-06T01:31:27;99357.91;;;25.37;37.85
35716;BME280;21840;44.920;8.616;2023-08-06T01:33:56;99356.84;;;25.43;38.30
35716;BME280;21840;44.920;8.616;2023-08-06T01:36:23;99369.28;;;25.17;40.62
35716;BME280;21840;44.920;8.616;2023-08-06T01:38:52;99360.59;;;25.37;40.55
35716;BME280;21840;44.920;8.616;2023-08-06T01:41:18;99364.75;;;25.23;41.56
35716;BME280;21840;44.920;8.616;2023-08-06T01:43:43;99372.03;;;25.22;41.97
35716;BME280;21840;44.920;8.616;2023-08-06T01:46:09;99363.84;;;25.39;41.31
35716;BME280;21840;44.920;8.616;2023-08-06T01:48:35;99367.50;;;25.28;42.03
35716;BME280;21840;44.920;8.616;2023-08-06T01:51:04;99365.44;;;25.40;41.76
35716;BME280;21840;44.920;8.616;2023-08-06T01:53:29;99374.16;;;25.52;41.46
35716;BME280;21840;44.920;8.616;2023-08-06T01:55:55;99369.53;;;25.48;40.85
35716;BME280;21840;44.920;8.616;2023-08-06T01:58:20;99375.47;;;25.17;40.40
35716;BME280;21840;44.920;8.616;2023-08-06T02:00:45;99382.34;;;24.37;42.28
35716;BME280;21840;44.920;8.616;2023-08-06T02:03:11;99383.31;;;24.97;41.16
35716;BME280;21840;44.920;8.616;2023-08-06T02:05:36;99375.41;;;24.85;41.37
35716;BME280;21840;44.920;8.616;2023-08-06T02:08:02;99372.59;;;24.75;41.87
35716;BME280;21840;44.920;8.616;2023-08-06T02:10:28;99378.75;;;24.48;42.48
35716;BME280;21840;44.920;8.616;2023-08-06T02:12:53;99376.38;;;24.52;42.59
35716;BME280;21840;44.920;8.616;2023-08-06T02:15:19;99378.59;;;24.82;41.33
35716;BME280;21840;44.920;8.616;2023-08-06T02:17:47;99372.00;;;24.46;42.88
35716;BME280;21840;44.920;8.616;2023-08-06T02:20:12;99366.22;;;24.54;42.84
35716;BME280;21840;44.920;8.616;2023-08-06T02:22:38;99368.94;;;24.37;43.66
35716;BME280;21840;44.920;8.616;2023-08-06T02:25:04;99359.19;;;24.53;43.25
35716;BME280;21840;44.920;8.616;2023-08-06T02:27:29;99358.78;;;24.61;43.42
35716;BME280;21840;44.920;8.616;2023-08-06T02:29:55;99364.38;;;24.60;43.18
35716;BME280;21840;44.920;8.616;2023-08-06T02:32:20;99374.50;;;23.92;45.24
35716;BME280;21840;44.920;8.616;2023-08-06T02:34:46;99362.41;;;23.55;46.59
35716;BME280;21840;44.920;8.616;2023-08-06T02:37:12;99366.22;;;23.76;46.61
35716;BME280;21840;44.920;8.616;2023-08-06T02:39:38;99378.59;;;23.77;46.16
35716;BME280;21840;44.920;8.616;2023-08-06T02:42:08;99375.38;;;23.97;45.80
35716;BME280;21840;44.920;8.616;2023-08-06T02:44:34;99372.88;;;23.90;45.52
35716;BME280;21840;44.920;8.616;2023-08-06T02:47:00;99362.94;;;23.23;46.80
35716;BME280;21840;44.920;8.616;2023-08-06T02:49:25;99363.41;;;23.03;47.16
35716;BME280;21840;44.920;8.616;2023-08-06T02:51:51;99366.19;;;23.09;47.22
35716;BME280;21840;44.920;8.616;2023-08-06T02:54:18;99374.63;;;23.00;47.18
35716;BME280;21840;44.920;8.616;2023-08-06T02:56:44;99370.91;;;23.01;47.31
35716;BME280;21840;44.920;8.616;2023-08-06T02:59:18;99347.34;;;23.03;47.09
35716;BME280;21840;44.920;8.616;2023-08-06T03:01:51;99350.78;;;22.87;47.39
35716;BME280;21840;44.920;8.616;2023-08-06T03:04:23;99353.19;;;23.00;47.22
35716;BME280;21840;44.920;8.616;2023-08-06T03:06:50;99339.28;;;23.32;46.95
35716;BME280;21840;44.920;8.616;2023-08-06T03:09:17;99337.41;;;23.50;46.27
35716;BME280;21840;44.920;8.616;2023-08-06T03:11:43;99341.03;;;23.43;46.38
35716;BME280;21840;44.920;8.616;2023-08-06T03:14:12;99347.03;;;23.34;46.20
35716;BME280;21840;44.920;8.616;2023-08-06T03:16:38;99338.50;;;23.03;47.31
35716;BME280;21840;44.920;8.616;2023-08-06T03:19:04;99342.75;;;22.58;48.62
35716;BME280;21840;44.920;8.616;2023-08-06T03:21:29;99344.31;;;22.54;48.60
35716;BME280;21840;44.920;8.616;2023-08-06T03:23:55;99345.25;;;22.77;48.19
35716;BME280;21840;44.920;8.616;2023-08-06T03:26:25;99331.66;;;23.24;46.99
35716;BME280;21840;44.920;8.616;2023-08-06T03:28:50;99343.63;;;23.38;47.20
35716;BME280;21840;44.920;8.616;2023-08-06T03:31:16;99348.25;;;23.26;47.11
35716;BME280;21840;44.920;8.616;2023-08-06T03:33:44;99353.13;;;23.46;46.77
35716;BME280;21840;44.920;8.616;2023-08-06T03:36:14;99352.25;;;23.40;46.84
35716;BME280;21840;44.920;8.616;2023-08-06T03:38:41;99355.66;;;23.36;47.26
35716;BME280;21840;44.920;8.616;2023-08-06T03:41:07;99356.31;;;23.26;47.49
35716;BME280;21840;44.920;8.616;2023-08-06T03:43:33;99345.91;;;23.13;47.80
35716;BME280;21840;44.920;8.616;2023-08-06T03:46:00;99351.44;;;23.23;47.58
35716;BME280;21840;44.920;8.616;2023-08-06T03:48:25;99354.13;;;23.40;47.11
35716;BME280;21840;44.920;8.616;2023-08-06T03:50:54;99356.72;;;23.35;47.43
35716;BME280;21840;44.920;8.616;2023-08-06T03:53:19;99356.47;;;23.36;47.23
35716;BME280;21840;44.920;8.616;2023-08-06T03:55:45;99363.13;;;23.17;47.65
35716;BME280;21840;44.920;8.616;2023-08-06T03:58:10;99351.44;;;23.40;47.14
35716;BME280;21840;44.920;8.616;2023-08-06T04:00:36;99350.56;;;23.34;46.87
35716;BME280;21840;44.920;8.616;2023-08-06T04:03:01;99352.69;;;23.03;48.06
35716;BME280;21840;44.920;8.616;2023-08-06T04:05:31;99343.44;;;22.94;48.15
35716;BME280;21840;44.920;8.616;2023-08-06T04:07:56;99353.69;;;22.97;48.35
35716;BME280;21840;44.920;8.616;2023-08-06T04:10:22;99349.06;;;23.10;48.01
35716;BME280;21840;44.920;8.616;2023-08-06T04:12:47;99360.63;;;23.27;47.59
35716;BME280;21840;44.920;8.616;2023-08-06T04:15:13;99358.19;;;22.97;48.16
35716;BME280;21840;44.920;8.616;2023-08-06T04:17:38;99364.97;;;22.99;48.52
35716;BME280;21840;44.920;8.616;2023-08-06T04:20:04;99371.31;;;23.10;47.61
35716;BME280;21840;44.920;8.616;2023-08-06T04:22:30;99369.13;;;23.07;47.31
35716;BME280;21840;44.920;8.616;2023-08-06T04:24:55;99370.75;;;23.25;47.20
35716;BME280;21840;44.920;8.616;2023-08-06T04:27:21;99365.09;;;23.21;46.96
35716;BME280;21840;44.920;8.616;2023-08-06T04:29:48;99362.88;;;23.01;47.19
35716;BME280;21840;44.920;8.616;2023-08-06T04:32:16;99355.66;;;23.02;47.51
35716;BME280;21840;44.920;8.616;2023-08-06T04:34:46;99373.31;;;23.03;47.59
35716;BME280;21840;44.920;8.616;2023-08-06T04:37:13;99368.78;;;23.03;47.34
35716;BME280;21840;44.920;8.616;2023-08-06T04:39:42;99377.66;;;23.21;47.16
35716;BME280;21840;44.920;8.616;2023-08-06T04:42:07;99376.25;;;23.18;47.08
35716;BME280;21840;44.920;8.616;2023-08-06T04:44:33;99374.09;;;22.87;48.15
35716;BME280;21840;44.920;8.616;2023-08-06T04:46:58;99378.03;;;23.13;47.38
35716;BME280;21840;44.920;8.616;2023-08-06T04:49:24;99395.50;;;23.15;47.30
35716;BME280;21840;44.920;8.616;2023-08-06T04:51:50;99391.53;;;23.18;47.10
35716;BME280;21840;44.920;8.616;2023-08-06T04:54:15;99388.34;;;23.21;47.01
35716;BME280;21840;44.920;8.616;2023-08-06T04:56:41;99375.13;;;23.31;46.50
35716;BME280;21840;44.920;8.616;2023-08-06T04:59:06;99386.59;;;23.43;46.44
35716;BME280;21840;44.920;8.616;2023-08-06T05:01:32;99400.88;;;23.32;46.63
35716;BME280;21840;44.920;8.616;2023-08-06T05:04:00;99402.28;;;23.52;46.05
35716;BME280;21840;44.920;8.616;2023-08-06T05:06:25;99394.47;;;23.50;46.21
35716;BME280;21840;44.920;8.616;2023-08-06T05:08:51;99393.69;;;23.66;45.88
35716;BME280;21840;44.920;8.616;2023-08-06T05:11:16;99403.56;;;23.66;45.85
35716;BME280;21840;44.920;8.616;2023-08-06T05:13:42;99390.66;;;23.63;46.07
35716;BME280;21840;44.920;8.616;2023-08-06T05:16:07;99395.16;;;23.74;46.24
35716;BME280;21840;44.920;8.616;2023-08-06T05:18:33;99400.06;;;23.48;46.65
35716;BME280;21840;44.920;8.616;2023-08-06T05:20:59;99395.13;;;23.40;47.05
35716;BME280;21840;44.920;8.616;2023-08-06T05:23:25;99415.03;;;23.95;45.79
35716;BME280;21840;44.920;8.616;2023-08-06T05:25:50;99414.13;;;24.06;45.50
35716;BME280;21840;44.920;8.616;2023-08-06T05:28:16;99418.97;;;24.26;45.47
35716;BME280;21840;44.920;8.616;2023-08-06T05:30:41;99405.56;;;24.26;45.81
35716;BME280;21840;44.920;8.616;2023-08-06T05:33:07;99397.09;;;24.57;45.11
35716;BME280;21840;44.920;8.616;2023-08-06T05:35:32;99401.69;;;24.39;44.98
35716;BME280;21840;44.920;8.616;2023-08-06T05:37:58;99401.94;;;24.38;44.83
35716;BME280;21840;44.920;8.616;2023-08-06T05:40:23;99399.75;;;24.35;45.18
35716;BME280;21840;44.920;8.616;2023-08-06T05:42:53;99402.41;;;24.51;44.82
35716;BME280;21840;44.920;8.616;2023-08-06T05:45:19;99398.84;;;24.46;45.08
35716;BME280;21840;44.920;8.616;2023-08-06T05:47:44;99406.22;;;24.39;45.09
35716;BME280;21840;44.920;8.616;2023-08-06T05:50:09;99403.16;;;24.69;44.26
35716;BME280;21840;44.920;8.616;2023-08-06T05:52:35;99402.09;;;24.70;43.97
35716;BME280;21840;44.920;8.616;2023-08-06T05:55:00;99411.41;;;25.11;43.40
35716;BME280;21840;44.920;8.616;2023-08-06T05:57:26;99405.47;;;25.36;43.13
35716;BME280;21840;44.920;8.616;2023-08-06T05:59:51;99419.81;;;25.47;42.60
35716;BME280;21840;44.920;8.616;2023-08-06T06:02:17;99424.94;;;25.49;41.91
35716;BME280;21840;44.920;8.616;2023-08-06T06:04:44;99410.81;;;25.64;41.48
35716;BME280;21840;44.920;8.616;2023-08-06T06:07:09;99417.97;;;25.53;41.65
35716;BME280;21840;44.920;8.616;2023-08-06T06:09:38;99426.44;;;25.12;42.14
35716;BME280;21840;44.920;8.616;2023-08-06T06:12:05;99410.81;;;25.64;41.45
35716;BME280;21840;44.920;8.616;2023-08-06T06:14:31;99412.69;;;25.68;41.37
35716;BME280;21840;44.920;8.616;2023-08-06T06:16:56;99415.06;;;25.59;41.04
35716;BME280;21840;44.920;8.616;2023-08-06T06:19:22;99417.06;;;25.74;40.90
35716;BME280;21840;44.920;8.616;2023-08-06T06:21:47;99428.75;;;25.90;40.79
35716;BME280;21840;44.920;8.616;2023-08-06T06:24:13;99431.47;;;25.95;40.63
35716;BME280;21840;44.920;8.616;2023-08-06T06:26:38;99439.00;;;25.93;40.60
35716;BME280;21840;44.920;8.616;2023-08-06T06:29:04;99439.69;;;26.16;40.23
35716;BME280;21840;44.920;8.616;2023-08-06T06:31:32;99437.09;;;26.31;40.25
35716;BME280;21840;44.920;8.616;2023-08-06T06:33:58;99434.00;;;26.55;39.81
35716;BME280;21840;44.920;8.616;2023-08-06T06:36:23;99425.66;;;26.56;39.74
35716;BME280;21840;44.920;8.616;2023-08-06T06:38:49;99432.00;;;26.35;39.92
35716;BME280;21840;44.920;8.616;2023-08-06T06:41:14;99427.06;;;26.74;39.08
35716;BME280;21840;44.920;8.616;2023-08-06T06:43:40;99434.63;;;26.77;38.53
35716;BME280;21840;44.920;8.616;2023-08-06T06:46:05;99450.06;;;26.44;39.05
35716;BME280;21840;44.920;8.616;2023-08-06T06:48:32;99440.53;;;26.74;38.54
35716;BME280;21840;44.920;8.616;2023-08-06T06:50:58;99445.66;;;26.76;37.87
35716;BME280;21840;44.920;8.616;2023-08-06T06:53:24;99448.91;;;26.78;37.90
35716;BME280;21840;44.920;8.616;2023-08-06T06:55:56;99448.28;;;26.60;38.04
35716;BME280;21840;44.920;8.616;2023-08-06T06:58:22;99447.59;;;26.90;37.67
35716;BME280;21840;44.920;8.616;2023-08-06T07:00:48;99443.84;;;27.02;37.42
35716;BME280;21840;44.920;8.616;2023-08-06T07:03:14;99450.34;;;27.11;36.79
35716;BME280;21840;44.920;8.616;2023-08-06T07:05:40;99453.06;;;27.11;35.99
35716;BME280;21840;44.920;8.616;2023-08-06T07:08:05;99451.16;;;27.06;35.82
35716;BME280;21840;44.920;8.616;2023-08-06T07:10:31;99451.69;;;27.08;35.27
35716;BME280;21840;44.920;8.616;2023-08-06T07:12:56;99449.84;;;27.19;34.78
35716;BME280;21840;44.920;8.616;2023-08-06T07:15:22;99445.56;;;27.28;35.10
35716;BME280;21840;44.920;8.616;2023-08-06T07:17:47;99440.38;;;27.17;35.25
35716;BME280;21840;44.920;8.616;2023-08-06T07:20:12;99422.38;;;27.38;35.15
35716;BME280;21840;44.920;8.616;2023-08-06T07:22:38;99429.59;;;27.17;35.19
35716;BME280;21840;44.920;8.616;2023-08-06T07:25:04;99431.28;;;27.43;34.78
35716;BME280;21840;44.920;8.616;2023-08-06T07:27:29;99432.34;;;27.58;34.40
35716;BME280;21840;44.920;8.616;2023-08-06T07:29:55;99427.75;;;27.53;34.22
35716;BME280;21840;44.920;8.616;2023-08-06T07:32:20;99422.66;;;27.92;33.93
35716;BME280;21840;44.920;8.616;2023-08-06T07:34:46;99423.72;;;28.02;33.73
35716;BME280;21840;44.920;8.616;2023-08-06T07:37:11;99428.59;;;27.74;32.48
35716;BME280;21840;44.920;8.616;2023-08-06T07:39:36;99425.88;;;27.74;31.34
35716;BME280;21840;44.920;8.616;2023-08-06T07:42:04;99426.69;;;27.39;31.81
35716;BME280;21840;44.920;8.616;2023-08-06T07:44:31;99421.28;;;27.95;31.24
35716;BME280;21840;44.920;8.616;2023-08-06T07:46:56;99419.34;;;28.21;31.07
35716;BME280;21840;44.920;8.616;2023-08-06T07:49:22;99414.81;;;28.01;30.73
35716;BME280;21840;44.920;8.616;2023-08-06T07:51:47;99418.59;;;27.90;30.28
35716;BME280;21840;44.920;8.616;2023-08-06T07:54:13;99424.78;;;27.80;29.25
35716;BME280;21840;44.920;8.616;2023-08-06T07:56:38;99420.19;;;28.11;28.51
35716;BME280;21840;44.920;8.616;2023-08-06T07:59:04;99429.94;;;27.87;28.65
35716;BME280;21840;44.920;8.616;2023-08-06T08:01:29;99431.16;;;28.40;28.86
35716;BME280;21840;44.920;8.616;2023-08-06T08:03:55;99425.53;;;28.32;28.96
35716;BME280;21840;44.920;8.616;2023-08-06T08:06:20;99425.47;;;28.42;29.28
35716;BME280;21840;44.920;8.616;2023-08-06T08:08:46;99414.09;;;28.66;29.15
35716;BME280;21840;44.920;8.616;2023-08-06T08:11:11;99408.50;;;28.47;28.92
35716;BME280;21840;44.920;8.616;2023-08-06T08:13:37;99414.16;;;28.45;28.85
35716;BME280;21840;44.920;8.616;2023-08-06T08:16:02;99411.97;;;28.52;28.89
35716;BME280;21840;44.920;8.616;2023-08-06T08:18:28;99413.41;;;28.89;28.63
35716;BME280;21840;44.920;8.616;2023-08-06T08:20:53;99420.91;;;28.97;28.55
35716;BME280;21840;44.920;8.616;2023-08-06T08:23:19;99413.50;;;28.74;28.78
35716;BME280;21840;44.920;8.616;2023-08-06T08:25:44;99429.53;;;28.39;28.57
35716;BME280;21840;44.920;8.616;2023-08-06T08:28:12;99426.31;;;28.37;28.70
35716;BME280;21840;44.920;8.616;2023-08-06T08:30:40;99435.03;;;28.89;27.93
35716;BME280;21840;44.920;8.616;2023-08-06T08:33:06;99440.69;;;28.93;28.57
35716;BME280;21840;44.920;8.616;2023-08-06T08:35:33;99433.56;;;28.52;29.02
35716;BME280;21840;44.920;8.616;2023-08-06T08:37:59;99434.22;;;28.89;28.67
35716;BME280;21840;44.920;8.616;2023-08-06T08:40:30;99424.81;;;29.31;28.51
35716;BME280;21840;44.920;8.616;2023-08-06T08:42:57;99424.59;;;29.22;28.29
35716;BME280;21840;44.920;8.616;2023-08-06T08:45:26;99426.19;;;29.57;28.13
35716;BME280;21840;44.920;8.616;2023-08-06T08:47:52;99431.00;;;29.71;27.55
35716;BME280;21840;44.920;8.616;2023-08-06T08:50:17;99434.16;;;29.43;26.56
35716;BME280;21840;44.920;8.616;2023-08-06T08:52:45;99429.69;;;29.68;26.41
35716;BME280;21840;44.920;8.616;2023-08-06T08:55:12;99426.25;;;29.52;26.05
35716;BME280;21840;44.920;8.616;2023-08-06T08:57:39;99423.19;;;29.64;24.51
35716;BME280;21840;44.920;8.616;2023-08-06T09:00:05;99414.16;;;29.79;24.48
35716;BME280;21840;44.920;8.616;2023-08-06T09:02:32;99418.88;;;29.92;24.52
35716;BME280;21840;44.920;8.616;2023-08-06T09:04:59;99419.50;;;30.13;24.32
35716;BME280;21840;44.920;8.616;2023-08-06T09:07:29;99417.22;;;30.25;24.66
35716;BME280;21840;44.920;8.616;2023-08-06T09:09:57;99409.69;;;30.17;24.25
35716;BME280;21840;44.920;8.616;2023-08-06T09:12:26;99406.31;;;30.30;24.07
35716;BME280;21840;44.920;8.616;2023-08-06T09:14:52;99407.34;;;30.35;23.49
35716;BME280;21840;44.920;8.616;2023-08-06T09:17:17;99417.53;;;30.43;23.04
35716;BME280;21840;44.920;8.616;2023-08-06T09:19:45;99409.97;;;30.40;21.60
35716;BME280;21840;44.920;8.616;2023-08-06T09:22:15;99402.56;;;30.50;21.01
35716;BME280;21840;44.920;8.616;2023-08-06T09:24:41;99396.47;;;30.59;21.00
35716;BME280;21840;44.920;8.616;2023-08-06T09:27:11;99398.00;;;30.65;20.73
35716;BME280;21840;44.920;8.616;2023-08-06T09:29:43;99400.78;;;30.60;19.68
35716;BME280;21840;44.920;8.616;2023-08-06T09:32:09;99406.31;;;30.73;19.26
35716;BME280;21840;44.920;8.616;2023-08-06T09:34:34;99403.41;;;30.89;19.94
35716;BME280;21840;44.920;8.616;2023-08-06T09:37:00;99401.50;;;31.08;19.76
35716;BME280;21840;44.920;8.616;2023-08-06T09:39:29;99406.19;;;30.41;18.47
35716;BME280;21840;44.920;8.616;2023-08-06T09:42:00;99400.44;;;30.66;18.57
35716;BME280;21840;44.920;8.616;2023-08-06T09:44:31;99402.94;;;30.82;18.48
35716;BME280;21840;44.920;8.616;2023-08-06T09:46:59;99403.41;;;30.89;18.75
35716;BME280;21840;44.920;8.616;2023-08-06T09:51:57;99402.50;;;31.12;17.73
35716;BME280;21840;44.920;8.616;2023-08-06T09:54:26;99410.50;;;31.23;17.41
35716;BME280;21840;44.920;8.616;2023-08-06T09:56:55;99401.69;;;31.31;16.90
35716;BME280;21840;44.920;8.616;2023-08-06T09:59:21;99397.59;;;31.14;17.25
35716;BME280;21840;44.920;8.616;2023-08-06T10:01:48;99393.47;;;31.36;17.65
35716;BME280;21840;44.920;8.616;2023-08-06T10:04:15;99394.97;;;31.28;18.04
35716;BME280;21840;44.920;8.616;2023-08-06T10:06:47;99392.31;;;31.42;17.14
35716;BME280;21840;44.920;8.616;2023-08-06T10:09:15;99389.91;;;31.41;16.35
35716;BME280;21840;44.920;8.616;2023-08-06T10:11:42;99376.34;;;30.46;16.26
35716;BME280;21840;44.920;8.616;2023-08-06T10:14:16;99393.88;;;30.91;14.95
35716;BME280;21840;44.920;8.616;2023-08-06T10:16:44;99391.09;;;31.15;14.36
35716;BME280;21840;44.920;8.616;2023-08-06T10:19:10;99394.81;;;31.38;14.09
35716;BME280;21840;44.920;8.616;2023-08-06T10:21:40;99386.25;;;31.12;14.06
35716;BME280;21840;44.920;8.616;2023-08-06T10:24:08;99386.38;;;31.21;13.48
35716;BME280;21840;44.920;8.616;2023-08-06T10:26:37;99373.44;;;31.51;13.75
35716;BME280;21840;44.920;8.616;2023-08-06T10:29:35;99379.88;;;31.55;13.65
35716;BME280;21840;44.920;8.616;2023-08-06T10:32:01;99386.63;;;31.57;14.84
35716;BME280;21840;44.920;8.616;2023-08-06T10:34:55;99393.75;;;31.53;15.87
35716;BME280;21840;44.920;8.616;2023-08-06T10:37:22;99392.53;;;31.46;15.61
35716;BME280;21840;44.920;8.616;2023-08-06T10:39:52;99388.94;;;31.64;15.52
35716;BME280;21840;44.920;8.616;2023-08-06T10:42:22;99379.44;;;31.80;16.26
35716;BME280;21840;44.920;8.616;2023-08-06T10:45:13;99361.66;;;31.88;16.27
35716;BME280;21840;44.920;8.616;2023-08-06T10:47:39;99376.31;;;31.87;15.25
35716;BME280;21840;44.920;8.616;2023-08-06T10:50:07;99364.38;;;32.16;15.30
35716;BME280;21840;44.920;8.616;2023-08-06T10:52:33;99362.94;;;31.77;15.27
35716;BME280;21840;44.920;8.616;2023-08-06T10:54:58;99378.38;;;31.63;14.27
35716;BME280;21840;44.920;8.616;2023-08-06T10:57:26;99369.75;;;31.74;13.06
35716;BME280;21840;44.920;8.616;2023-08-06T10:59:52;99373.19;;;31.80;12.87
35716;BME280;21840;44.920;8.616;2023-08-06T11:02:17;99360.34;;;31.86;13.09
35716;BME280;21840;44.920;8.616;2023-08-06T11:04:43;99357.75;;;32.08;13.73
35716;BME280;21840;44.920;8.616;2023-08-06T11:07:08;99363.19;;;32.08;16.26
35716;BME280;21840;44.920;8.616;2023-08-06T11:09:34;99360.31;;;31.72;13.45
35716;BME280;21840;44.920;8.616;2023-08-06T11:11:59;99347.34;;;31.83;13.47
35716;BME280;21840;44.920;8.616;2023-08-06T11:14:24;99344.22;;;31.89;13.47
35716;BME280;21840;44.920;8.616;2023-08-06T11:16:50;99343.25;;;31.99;13.44
35716;BME280;21840;44.920;8.616;2023-08-06T11:19:16;99348.34;;;31.87;13.42
35716;BME280;21840;44.920;8.616;2023-08-06T11:21:43;99358.00;;;31.79;14.44
35716;BME280;21840;44.920;8.616;2023-08-06T11:24:12;99342.25;;;31.95;14.65
35716;BME280;21840;44.920;8.616;2023-08-06T11:26:37;99331.56;;;32.26;14.10
35716;BME280;21840;44.920;8.616;2023-08-06T11:29:05;99331.38;;;32.22;12.84
35716;BME280;21840;44.920;8.616;2023-08-06T11:31:30;99343.06;;;32.23;12.49
35716;BME280;21840;44.920;8.616;2023-08-06T11:33:56;99353.09;;;32.22;13.48
35716;BME280;21840;44.920;8.616;2023-08-06T11:36:29;99345.06;;;32.04;13.91
35716;BME280;21840;44.920;8.616;2023-08-06T11:38:56;99343.47;;;32.16;14.05
35716;BME280;21840;44.920;8.616;2023-08-06T11:41:22;99335.81;;;32.18;13.95
35716;BME280;21840;44.920;8.616;2023-08-06T11:43:47;99331.69;;;32.07;13.83
35716;BME280;21840;44.920;8.616;2023-08-06T11:46:13;99335.19;;;32.35;14.08
35716;BME280;21840;44.920;8.616;2023-08-06T11:48:55;99327.97;;;32.17;14.83
35716;BME280;21840;44.920;8.616;2023-08-06T11:51:27;99326.69;;;32.00;15.12
35716;BME280;21840;44.920;8.616;2023-08-06T11:53:59;99318.72;;;32.18;14.86
35716;BME280;21840;44.920;8.616;2023-08-06T11:56:25;99316.28;;;32.16;14.64
35716;BME280;21840;44.920;8.616;2023-08-06T11:58:52;99327.75;;;32.27;14.79
35716;BME280;21840;44.920;8.616;2023-08-06T12:01:18;99323.31;;;32.31;14.91
35716;BME280;21840;44.920;8.616;2023-08-06T12:03:43;99332.94;;;32.37;15.44
35716;BME280;21840;44.920;8.616;2023-08-06T12:06:09;99331.38;;;32.22;15.99
35716;BME280;21840;44.920;8.616;2023-08-06T12:08:34;99341.66;;;32.12;15.50
35716;BME280;21840;44.920;8.616;2023-08-06T12:11:00;99332.25;;;32.45;15.64
35716;BME280;21840;44.920;8.616;2023-08-06T12:13:25;99334.25;;;32.54;15.02
35716;BME280;21840;44.920;8.616;2023-08-06T12:15:51;99332.75;;;32.48;14.76
35716;BME280;21840;44.920;8.616;2023-08-06T12:18:19;99326.50;;;32.61;14.50
35716;BME280;21840;44.920;8.616;2023-08-06T12:20:44;99327.97;;;32.67;14.72
35716;BME280;21840;44.920;8.616;2023-08-06T12:23:10;99332.44;;;32.63;14.78
35716;BME280;21840;44.920;8.616;2023-08-06T12:25:38;99334.38;;;32.49;15.08
35716;BME280;21840;44.920;8.616;2023-08-06T12:28:03;99334.19;;;32.31;15.06
35716;BME280;21840;44.920;8.616;2023-08-06T12:30:31;99323.97;;;32.64;15.47
35716;BME280;21840;44.920;8.616;2023-08-06T12:32:56;99335.44;;;32.61;14.15
35716;BME280;21840;44.920;8.616;2023-08-06T12:35:21;99324.56;;;32.61;16.17
35716;BME280;21840;44.920;8.616;2023-08-06T12:37:47;99315.09;;;32.95;15.13
35716;BME280;21840;44.920;8.616;2023-08-06T12:40:12;99326.75;;;32.73;14.84
35716;BME280;21840;44.920;8.616;2023-08-06T12:42:38;99323.81;;;32.83;14.69
35716;BME280;21840;44.920;8.616;2023-08-06T12:45:03;99323.97;;;32.87;15.19
35716;BME280;21840;44.920;8.616;2023-08-06T12:47:29;99326.91;;;32.91;15.14
35716;BME280;21840;44.920;8.616;2023-08-06T12:49:54;99328.78;;;33.04;15.36
35716;BME280;21840;44.920;8.616;2023-08-06T12:52:20;99332.25;;;32.82;15.80
35716;BME280;21840;44.920;8.616;2023-08-06T12:54:45;99323.03;;;32.69;16.42
35716;BME280;21840;44.920;8.616;2023-08-06T12:57:11;99321.44;;;32.68;16.70
35716;BME280;21840;44.920;8.616;2023-08-06T12:59:37;99323.41;;;32.76;16.34
35716;BME280;21840;44.920;8.616;2023-08-06T13:02:03;99321.59;;;32.85;16.48
35716;BME280;21840;44.920;8.616;2023-08-06T13:04:28;99323.81;;;32.83;16.30
35716;BME280;21840;44.920;8.616;2023-08-06T13:06:54;99325.53;;;32.79;15.64